Flight Track Log - Related Links

Times and Time Zones

All times are in EDT time to prevent confusion due to time zone crossing. See the N709UW flight status page for this flight to view local times or setup timezone preferences in your user account.

Time Position Orientation Groundspeed Altitude Reporting Facility
EDT Latitude Longitude Course Direction KTS MPH feet Rate Location/Type
Fri 07:09:27 AM 29.9958 -90.2819 52° Northeast 155 178 500  Level Houston Center
Fri 07:10:16 AM 30.0053 -90.3222 285° West 163 188 2,300 2,077 Climbing Houston Center
Fri 07:10:45 AM 30.0189 -90.3481 301° West 192 221 3,200 2,167 Climbing Houston Center
Fri 07:11:28 AM 30.0606 -90.3561 351° North 243 280 4,900 2,500 Climbing Houston Center
Fri 07:11:45 AM 30.0828 -90.3469 20° North 244 281 5,700 2,923 Climbing Houston Center
Fri 07:12:00 AM 30.1463 -90.0222 52° Northeast  Level FlightAware Approximate
Fri 07:12:46 AM 30.1333 -90.2761 50° Northeast 277 319 8,700  Level Houston Center
Fri 07:13:00 AM 30.2324 -89.9080 50° Northeast  Level FlightAware Approximate
Fri 07:13:47 AM 30.1864 -90.1936 53° Northeast 306 352 11,000  Level Houston Center
Fri 07:14:00 AM 30.3133 -89.7884 52° Northeast  Level FlightAware Approximate
Fri 07:14:48 AM 30.2519 -90.0953 52° Northeast 380 437 12,700  Level Houston Center
Fri 07:15:48 AM 30.3200 -89.9928 52° Northeast 397 457 15,300 2,331 Climbing Houston Center
Fri 07:16:49 AM 30.3917 -89.8833 53° Northeast 415 478 17,400 2,016 Climbing Houston Center
Fri 07:17:50 AM 30.4694 -89.7678 52° Northeast 437 503 19,400 1,918 Climbing Houston Center
Fri 07:18:51 AM 30.5411 -89.6444 56° Northeast 454 522 21,300 1,686 Climbing Houston Center
Fri 07:19:51 AM 30.6097 -89.5144 58° Northeast 468 539 22,800 1,587 Climbing Houston Center
Fri 07:20:52 AM 30.6814 -89.3797 58° Northeast 486 559 24,500 1,623 Climbing Houston Center
Fri 07:21:53 AM 30.7522 -89.2414 59° Northeast 497 572 26,100 1,475 Climbing Houston Center
Fri 07:22:54 AM 30.8253 -89.1000 59° Northeast 508 585 27,500 1,279 Climbing Houston Center
Fri 07:23:55 AM 30.8986 -88.9578 59° Northeast 513 590 28,700 1,131 Climbing Houston Center
Fri 07:24:56 AM 30.9681 -88.8244 59° Northeast 526 605 29,800 1,279 Climbing Houston Center
Fri 07:25:57 AM 31.0444 -88.6761 59° Northeast 532 612 31,300 1,525 Climbing Houston Center
Fri 07:26:58 AM 31.1275 -88.5167 59° Northeast 528 608 32,900 1,328 Climbing Houston Center
Fri 07:27:59 AM 31.2028 -88.3703 59° Northeast 529 609 34,000 1,169 Climbing Houston Center
Fri 07:28:15 AM 31.2364 -88.3175 53° Northeast 533 613 34,400 947 Climbing Atlanta Center
Fri 07:29:15 AM 31.3106 -88.1656 60° Northeast 533 613 35,200 914 Climbing Atlanta Center
Fri 07:30:00 AM 31.3547 -88.0731 61° Northeast 544 626 36,000 1,200 Climbing Houston Center
Fri 07:30:15 AM 31.3883 -88.0133 57° Northeast 538 619 36,400 800 Climbing Atlanta Center
Fri 07:31:15 AM 31.4642 -87.8608 60° Northeast 538 619 37,000 300 Climbing Atlanta Center
Fri 07:32:15 AM 31.5419 -87.7108 59° Northeast 538 619 37,000  Level Atlanta Center
Fri 07:33:15 AM 31.6172 -87.5578 60° Northeast 538 619 37,000  Level Atlanta Center
Fri 07:34:15 AM 31.6944 -87.4069 59° Northeast 538 619 37,000  Level Atlanta Center
Fri 07:35:15 AM 31.7567 -87.2700 62° Northeast 532 612 37,000  Level Atlanta Center
Fri 07:36:15 AM 31.8336 -87.1164 59° Northeast 532 612 37,000  Level Atlanta Center
Fri 07:37:15 AM 31.9081 -86.9650 60° Northeast 538 619 37,000  Level Atlanta Center
Fri 07:38:15 AM 31.9825 -86.8131 60° Northeast 538 619 37,000  Level Atlanta Center
Fri 07:39:15 AM 32.0719 -86.6442 58° Northeast 548 631 37,000  Level Atlanta Center
Fri 07:40:15 AM 32.1461 -86.4894 60° Northeast 548 631 37,000  Level Atlanta Center
Fri 07:41:15 AM 32.2197 -86.3417 59° Northeast 537 618 37,000  Level Atlanta Center
Fri 07:42:15 AM 32.3100 -86.2014 53° Northeast 537 618 37,000  Level Atlanta Center
Fri 07:43:15 AM 32.4061 -86.0733 48° Northeast 528 608 37,000  Level Atlanta Center
Fri 07:44:15 AM 32.5083 -85.9403 48° Northeast 528 608 37,000  Level Atlanta Center
Fri 07:45:15 AM 32.6128 -85.8069 47° Northeast 533 613 37,000  Level Atlanta Center
Fri 07:46:15 AM 32.7125 -85.6756 48° Northeast 533 613 37,000  Level Atlanta Center
Fri 07:47:15 AM 32.8103 -85.5439 49° Northeast 533 613 37,000  Level Atlanta Center
Fri 07:48:15 AM 32.9078 -85.4119 49° Northeast 533 613 37,000  Level Atlanta Center
Fri 07:49:15 AM 33.0053 -85.2747 50° Northeast 533 613 37,000  Level Atlanta Center
Fri 07:50:15 AM 33.1067 -85.1522 45° Northeast 520 598 37,000  Level Atlanta Center
Fri 07:51:15 AM 33.2058 -85.0194 48° Northeast 520 598 37,000  Level Atlanta Center
Fri 07:52:15 AM 33.3031 -84.8839 49° Northeast 527 606 37,000  Level Atlanta Center
Fri 07:53:15 AM 33.3850 -84.7703 49° Northeast 522 601 37,000 -300 Level Atlanta Center
Fri 07:54:15 AM 33.4797 -84.6414 49° Northeast 516 594 36,400 -800 Descending Atlanta Center
Fri 07:55:15 AM 33.5700 -84.5100 50° Northeast 510 587 35,400 -700 Descending Atlanta Center
Fri 07:56:15 AM 33.6414 -84.3706 58° Northeast 503 579 35,000 -200 Descending Atlanta Center
Fri 07:57:15 AM 33.6919 -84.2111 69° East 488 562 35,000  Level Atlanta Center
Fri 07:58:15 AM 33.7378 -84.0464 71° East 510 587 35,000  Level Atlanta Center
Fri 07:59:15 AM 33.7817 -83.8889 71° East 499 574 35,000  Level Atlanta Center
Fri 08:00:15 AM 33.8253 -83.7311 72° East 499 574 35,000 -350 Level Atlanta Center
Fri 08:01:15 AM 33.8706 -83.5708 71° East 498 573 34,300 -850 Descending Atlanta Center
Fri 08:02:15 AM 33.9117 -83.4081 73° East 498 573 33,300 -1,000 Descending Atlanta Center
Fri 08:03:15 AM 33.8961 -83.2556 97° East 461 531 32,300 -1,000 Descending Atlanta Center
Fri 08:04:15 AM 33.8700 -83.0881 101° East 461 531 31,300 -1,050 Descending Atlanta Center
Fri 08:05:15 AM 33.8456 -82.9333 101° East 461 531 30,200 -1,050 Descending Atlanta Center
Fri 08:06:15 AM 33.8317 -82.7833 96° East 462 532 29,200 -1,050 Descending Atlanta Center
Fri 08:07:15 AM 33.8867 -82.6475 64° Northeast 434 499 28,100 -1,100 Descending Atlanta Center
Fri 08:08:15 AM 33.9708 -82.5383 47° Northeast 421 484 27,000 -1,300 Descending Atlanta Center
Fri 08:09:15 AM 34.0508 -82.4292 48° Northeast 428 493 25,500 -1,400 Descending Atlanta Center
Fri 08:10:15 AM 34.1225 -82.3325 48° Northeast 426 490 24,200 -800 Descending Atlanta Center
Fri 08:11:15 AM 34.1983 -82.2306 48° Northeast 421 484 23,900 -1,050 Descending Atlanta Center
Fri 08:12:15 AM 34.2739 -82.1258 49° Northeast 414 476 22,100 -1,736 Descending Atlanta Center
Fri 08:13:16 AM 34.3475 -82.0311 47° Northeast 397 457 20,400 -1,600 Descending Atlanta Center
Fri 08:14:15 AM 34.4233 -81.9386 45° Northeast 387 445 18,900 -1,866 Descending Atlanta Center
Fri 08:15:15 AM 34.5008 -81.8408 46° Northeast 376 433 16,700 -2,017 Descending Atlanta Center
Fri 08:16:11 AM 34.5703 -81.7533 46° Northeast 365 420 15,000 -1,653 Descending Atlanta Center
Fri 08:16:53 AM 34.6150 -81.6942 47° Northeast 356 410 14,000 -1,688 Descending Atlanta Center
Fri 08:17:15 AM 34.6375 -81.6656 46° Northeast 353 406 13,200 -1,475 Descending Atlanta Center
Fri 08:17:54 AM 34.6822 -81.6114 45° Northeast 345 397 12,500 -1,000 Descending Atlanta Center
Fri 08:18:15 AM 34.7067 -81.5828 44° Northeast 348 400 12,200 -492 Descending Atlanta Center
Fri 08:18:55 AM 34.7514 -81.5258 46° Northeast 346 398 12,000 -200 Descending Atlanta Center
Fri 08:19:15 AM 34.7658 -81.5053 49° Northeast 348 400 12,000 -197 Level Atlanta Center
Fri 08:19:56 AM 34.8167 -81.4431 45° Northeast 341 392 11,800 -500 Descending Atlanta Center
Fri 08:20:15 AM 34.8308 -81.4222 50° Northeast 336 387 11,500 -1,377 Descending Atlanta Center
Fri 08:20:57 AM 34.8856 -81.3522 46° Northeast 337 388 10,400 -1,200 Descending Atlanta Center
Fri 08:21:15 AM 34.8936 -81.3392 53° Northeast 329 379 10,300 -436 Descending Atlanta Center
Fri 08:21:52 AM 34.9383 -81.2794 48° Northeast 334 384 10,000 -300 Descending Atlanta Center
Fri 08:22:15 AM 34.9564 -81.2561 47° Northeast 324 373 10,000  Level Atlanta Center
Fri 08:22:59 AM 35.0114 -81.1883 45° Northeast 332 382 10,000  Level Atlanta Center
Fri 08:23:15 AM 35.0192 -81.1756 53° Northeast 322 371 10,000  Level Atlanta Center
Fri 08:23:59 AM 35.0703 -81.1089 47° Northeast 304 350 10,000  Level FAA TRACON SMA TRACON (SMA)
Fri 08:24:20 AM 35.0872 -81.0867 47° Northeast 294 338 10,000 -750 Level FAA TRACON SMA TRACON (SMA)
Fri 08:24:39 AM 35.1083 -81.0642 41° Northeast 293 337 9,500 -1,385 Descending FAA TRACON SMA TRACON (SMA)
Fri 08:24:59 AM 35.1342 -81.0614 North 261 300 9,100 -732 Descending FAA TRACON SMA TRACON (SMA)
Fri 08:25:20 AM 35.1578 -81.0647 353° North 277 319 9,000 -293 Descending FAA TRACON SMA TRACON (SMA)
Fri 08:25:40 AM 35.1858 -81.0675 355° North 271 312 8,900 -429 Descending FAA TRACON SMA TRACON (SMA)
Fri 08:26:02 AM 35.2106 -81.0683 358° North 265 305 8,700 -1,000 Descending FAA TRACON SMA TRACON (SMA)
Fri 08:26:22 AM 35.2392 -81.0708 356° North 266 306 8,200 -1,263 Descending FAA TRACON SMA TRACON (SMA)
Fri 08:26:40 AM 35.2564 -81.0725 355° North 266 306 7,900 -1,297 Descending FAA TRACON SMA TRACON (SMA)
Fri 08:26:59 AM 35.2853 -81.0747 356° North 267 307 7,400 -1,385 Descending FAA TRACON SMA TRACON (SMA)
Fri 08:27:19 AM 35.3081 -81.0769 355° North 265 305 7,000 -1,024 Descending FAA TRACON SMA TRACON (SMA)
Fri 08:27:40 AM 35.3308 -81.0786 357° North 264 304 6,700 -1,171 Descending FAA TRACON SMA TRACON (SMA)
Fri 08:28:00 AM 35.3586 -81.0814 355° North 261 300 6,200 -1,050 Descending FAA TRACON SMA TRACON (SMA)
Fri 08:28:20 AM 35.3808 -81.0836 355° North 259 298 6,000 -600 Descending FAA TRACON SMA TRACON (SMA)
Fri 08:28:40 AM 35.4028 -81.0856 356° North 258 297 5,800 -1,200 Descending FAA TRACON SMA TRACON (SMA)
Fri 08:29:00 AM 35.4303 -81.0756 17° North 274 315 5,200 -1,650 Descending FAA TRACON SMA TRACON (SMA)
Fri 08:29:20 AM 35.4453 -81.0519 52° Northeast 286 329 4,700 -1,200 Descending FAA TRACON SMA TRACON (SMA)
Fri 08:29:40 AM 35.4483 -81.0236 82° East 253 291 4,400 -615 Descending FAA TRACON SMA TRACON (SMA)
Fri 08:29:59 AM 35.4383 -81.0014 119° Southeast 237 273 4,300 -462 Descending FAA TRACON SMA TRACON (SMA)
Fri 08:30:19 AM 35.4203 -80.9878 148° Southeast 194 223 4,100 -450 Descending FAA TRACON SMA TRACON (SMA)
Fri 08:30:39 AM 35.4047 -80.9836 168° South 183 211 4,000 -300 Descending FAA TRACON SMA TRACON (SMA)
Fri 08:30:59 AM 35.3889 -80.9817 174° South 186 214 3,900 -750 Descending FAA TRACON SMA TRACON (SMA)
Fri 08:31:19 AM 35.3692 -80.9800 176° South 183 211 3,500 -1,024 Descending FAA TRACON SMA TRACON (SMA)
Fri 08:31:40 AM 35.3533 -80.9786 176° South 183 211 3,200 -857 Descending FAA TRACON SMA TRACON (SMA)

Login

Don't have an account? Register now (free) for customized features, flight alerts, and more!